This is the latest recevied weather packets stored in our database for station/object KG7KID-3. If no packets are shown the sender has not sent any weather packets the latest 1 day(s).
| Time | Temp. | Humidity | Pressure | Rain* | Wind** | Luminosity | Snow |
|---|---|---|---|---|---|---|---|
| 1778032479 | 18.89° C | - | 882.7 hPa | 0 mm | 0 m/s | - | - |
| 1778031777 | 18.89° C | 36% | 882.6 hPa | 0 mm | 0 m/s | - | - |
| 1778031579 | 18.89° C | 36% | 882.6 hPa | 0 mm | 0 m/s | - | - |
| 1778030379 | 18.89° C | 36% | 882.3 hPa | 0 mm | 0 m/s | - | - |
| 1778029634 | 18.89° C | 36% | 882 hPa | 0 mm | 0 m/s | - | - |
| 1778029478 | 18.89° C | 36% | 882 hPa | 0 mm | 0 m/s | - | - |
| 1778029179 | 18.89° C | 35% | 881.9 hPa | 0 mm | 0 m/s | - | - |
| 1778028402 | 19.44° C | 35% | 881.8 hPa | 0 mm | 0 m/s | - | - |
| 1778028278 | 19.44° C | 35% | 881.8 hPa | 0 mm | 0 m/s | - | - |
| 1778021356 | 20.56° C | 43% | 881.5 hPa | 0 mm | 0 m/s | - | - |
| 1778020156 | 20.56° C | 45% | 881.7 hPa | 0.25 mm | 0 m/s | - | - |
| 1778019453 | 19.44° C | 52% | 881.9 hPa | 0.25 mm | 0 m/s | - | - |
| 1778018316 | 16.67° C | 69% | 882.4 hPa | 0.25 mm | 0 m/s | - | - |
| 1778018253 | 16.67° C | 69% | 882.4 hPa | 0.25 mm | 0 m/s | - | - |
| 1778017953 | 17.22° C | 66% | 882.5 hPa | 0.25 mm | 0 m/s | - | - |
| 1778011761 | 19.44° C | 60% | 882.8 hPa | 0.25 mm | 0 m/s | - | - |
| 1778011640 | 19.44° C | 60% | 882.8 hPa | 0.25 mm | 0 m/s | - | - |
| 1778011478 | 19.44° C | 61% | 882.9 hPa | 0 mm | 0 m/s | - | - |
| 1778011339 | 19.44° C | 61% | 882.9 hPa | 0 mm | 0 m/s | - | - |
| 1778003240 | 17.22° C | 70% | 883.8 hPa | 0 mm | 0 m/s | - | - |
| 1778002831 | 17.22° C | 69% | 883.7 hPa | 0 mm | 0 m/s | - | - |
| 1778002638 | 17.22° C | 69% | 883.7 hPa | 0 mm | 0 m/s | - | - |
| 1778001738 | 17.78° C | 71% | 883.9 hPa | 0 mm | 0 m/s | - | - |
| 1778001139 | 17.22° C | 74% | 883.8 hPa | 0 mm | 0 m/s | - | - |
| 1778000679 | 16.67° C | 80% | 884 hPa | 0 mm | 0 m/s | - | - |
* Rain latest hour (hover to see other rain measurements)
** Current wind speed in m/s (hover to see current wind gust speed)